sensor_id;sensor_type;location;lat;lon;timestamp;temperature;humidity
22674;DHT22;11504;43.334;21.918;2023-08-06T00:00:10;21.9;100.0
22674;DHT22;11504;43.334;21.918;2023-08-06T00:04:47;21.8;100.0
22674;DHT22;11504;43.334;21.918;2023-08-06T00:09:23;21.8;100.0
22674;DHT22;11504;43.334;21.918;2023-08-06T00:14:00;21.7;100.0
22674;DHT22;11504;43.334;21.918;2023-08-06T00:18:37;21.7;100.0
22674;DHT22;11504;43.334;21.918;2023-08-06T00:23:14;21.7;100.0
22674;DHT22;11504;43.334;21.918;2023-08-06T00:27:51;21.8;100.0
22674;DHT22;11504;43.334;21.918;2023-08-06T00:32:27;21.8;100.0
22674;DHT22;11504;43.334;21.918;2023-08-06T00:37:04;22.0;100.0
22674;DHT22;11504;43.334;21.918;2023-08-06T00:41:41;22.0;100.0
22674;DHT22;11504;43.334;21.918;2023-08-06T00:46:18;22.0;100.0
22674;DHT22;11504;43.334;21.918;2023-08-06T00:50:56;22.0;100.0
22674;DHT22;11504;43.334;21.918;2023-08-06T00:55:34;22.0;100.0
22674;DHT22;11504;43.334;21.918;2023-08-06T01:00:13;22.0;100.0
22674;DHT22;11504;43.334;21.918;2023-08-06T01:04:50;22.0;100.0
22674;DHT22;11504;43.334;21.918;2023-08-06T01:09:58;22.0;100.0
22674;DHT22;11504;43.334;21.918;2023-08-06T01:15:33;22.0;100.0
22674;DHT22;11504;43.334;21.918;2023-08-06T01:20:29;22.0;100.0
22674;DHT22;11504;43.334;21.918;2023-08-06T01:25:09;22.0;100.0
22674;DHT22;11504;43.334;21.918;2023-08-06T01:30:11;22.0;100.0
22674;DHT22;11504;43.334;21.918;2023-08-06T01:35:07;21.9;100.0
22674;DHT22;11504;43.334;21.918;2023-08-06T01:39:53;21.9;100.0
22674;DHT22;11504;43.334;21.918;2023-08-06T01:44:29;21.8;100.0
22674;DHT22;11504;43.334;21.918;2023-08-06T01:49:06;21.8;100.0
22674;DHT22;11504;43.334;21.918;2023-08-06T01:53:43;21.8;100.0
22674;DHT22;11504;43.334;21.918;2023-08-06T01:58:19;21.8;100.0
22674;DHT22;11504;43.334;21.918;2023-08-06T02:02:55;21.8;100.0
22674;DHT22;11504;43.334;21.918;2023-08-06T02:07:32;21.8;100.0
22674;DHT22;11504;43.334;21.918;2023-08-06T02:12:08;21.8;100.0
22674;DHT22;11504;43.334;21.918;2023-08-06T02:16:44;21.7;100.0
22674;DHT22;11504;43.334;21.918;2023-08-06T02:21:21;21.7;100.0
22674;DHT22;11504;43.334;21.918;2023-08-06T02:26:00;21.6;100.0
22674;DHT22;11504;43.334;21.918;2023-08-06T02:30:50;21.6;100.0
22674;DHT22;11504;43.334;21.918;2023-08-06T02:35:27;21.6;100.0
22674;DHT22;11504;43.334;21.918;2023-08-06T02:40:07;21.6;100.0
22674;DHT22;11504;43.334;21.918;2023-08-06T02:44:45;21.6;100.0
22674;DHT22;11504;43.334;21.918;2023-08-06T02:49:21;21.6;100.0
22674;DHT22;11504;43.334;21.918;2023-08-06T02:53:57;21.5;100.0
22674;DHT22;11504;43.334;21.918;2023-08-06T02:58:34;21.5;100.0
22674;DHT22;11504;43.334;21.918;2023-08-06T03:03:10;21.5;100.0
22674;DHT22;11504;43.334;21.918;2023-08-06T03:07:47;21.2;100.0
22674;DHT22;11504;43.334;21.918;2023-08-06T03:12:23;21.2;100.0
22674;DHT22;11504;43.334;21.918;2023-08-06T03:17:00;20.8;100.0
22674;DHT22;11504;43.334;21.918;2023-08-06T03:21:36;20.8;100.0
22674;DHT22;11504;43.334;21.918;2023-08-06T03:26:12;20.8;100.0
22674;DHT22;11504;43.334;21.918;2023-08-06T03:30:58;20.8;100.0
22674;DHT22;11504;43.334;21.918;2023-08-06T03:35:35;20.9;100.0
22674;DHT22;11504;43.334;21.918;2023-08-06T03:40:12;20.9;100.0
22674;DHT22;11504;43.334;21.918;2023-08-06T03:44:48;21.0;100.0
22674;DHT22;11504;43.334;21.918;2023-08-06T03:49:25;21.0;100.0
22674;DHT22;11504;43.334;21.918;2023-08-06T03:54:02;21.0;100.0
22674;DHT22;11504;43.334;21.918;2023-08-06T03:58:39;21.0;100.0
22674;DHT22;11504;43.334;21.918;2023-08-06T04:03:16;21.0;100.0
22674;DHT22;11504;43.334;21.918;2023-08-06T04:07:53;21.0;100.0
22674;DHT22;11504;43.334;21.918;2023-08-06T04:12:30;21.0;100.0
22674;DHT22;11504;43.334;21.918;2023-08-06T04:17:08;21.1;100.0
22674;DHT22;11504;43.334;21.918;2023-08-06T04:21:44;21.1;100.0
22674;DHT22;11504;43.334;21.918;2023-08-06T04:26:20;21.2;100.0
22674;DHT22;11504;43.334;21.918;2023-08-06T04:30:58;21.2;100.0
22674;DHT22;11504;43.334;21.918;2023-08-06T04:35:35;21.2;100.0
22674;DHT22;11504;43.334;21.918;2023-08-06T04:40:11;21.2;100.0
22674;DHT22;11504;43.334;21.918;2023-08-06T04:44:48;21.3;100.0
22674;DHT22;11504;43.334;21.918;2023-08-06T04:49:25;21.3;100.0
22674;DHT22;11504;43.334;21.918;2023-08-06T05:07:10;21.4;100.0
22674;DHT22;11504;43.334;21.918;2023-08-06T05:12:01;21.4;100.0
22674;DHT22;11504;43.334;21.918;2023-08-06T05:25:54;22.4;100.0
22674;DHT22;11504;43.334;21.918;2023-08-06T05:30:32;22.4;100.0
22674;DHT22;11504;43.334;21.918;2023-08-06T05:36:07;22.4;100.0
22674;DHT22;11504;43.334;21.918;2023-08-06T05:40:44;22.4;100.0
22674;DHT22;11504;43.334;21.918;2023-08-06T05:45:21;22.7;100.0
22674;DHT22;11504;43.334;21.918;2023-08-06T05:49:58;22.7;100.0
22674;DHT22;11504;43.334;21.918;2023-08-06T05:54:35;23.0;100.0
22674;DHT22;11504;43.334;21.918;2023-08-06T05:59:12;23.0;100.0
22674;DHT22;11504;43.334;21.918;2023-08-06T06:03:48;23.7;100.0
22674;DHT22;11504;43.334;21.918;2023-08-06T06:08:25;23.7;100.0
22674;DHT22;11504;43.334;21.918;2023-08-06T06:13:02;23.7;100.0
22674;DHT22;11504;43.334;21.918;2023-08-06T06:17:39;24.4;100.0
22674;DHT22;11504;43.334;21.918;2023-08-06T06:22:16;24.4;100.0
22674;DHT22;11504;43.334;21.918;2023-08-06T06:26:53;25.8;100.0
22674;DHT22;11504;43.334;21.918;2023-08-06T06:31:30;25.8;100.0
22674;DHT22;11504;43.334;21.918;2023-08-06T06:36:07;27.1;100.0
22674;DHT22;11504;43.334;21.918;2023-08-06T06:40:54;27.1;100.0
22674;DHT22;11504;43.334;21.918;2023-08-06T06:45:31;27.4;100.0
22674;DHT22;11504;43.334;21.918;2023-08-06T06:50:10;27.4;100.0
22674;DHT22;11504;43.334;21.918;2023-08-06T06:54:47;27.8;100.0
22674;DHT22;11504;43.334;21.918;2023-08-06T06:59:23;27.8;100.0
22674;DHT22;11504;43.334;21.918;2023-08-06T07:04:00;28.2;100.0
22674;DHT22;11504;43.334;21.918;2023-08-06T07:08:36;28.2;100.0
22674;DHT22;11504;43.334;21.918;2023-08-06T07:13:13;28.2;100.0
22674;DHT22;11504;43.334;21.918;2023-08-06T07:17:49;28.6;100.0
22674;DHT22;11504;43.334;21.918;2023-08-06T07:22:25;28.6;100.0
22674;DHT22;11504;43.334;21.918;2023-08-06T07:27:02;28.8;100.0
22674;DHT22;11504;43.334;21.918;2023-08-06T07:31:38;28.8;100.0
22674;DHT22;11504;43.334;21.918;2023-08-06T07:36:15;29.1;100.0
22674;DHT22;11504;43.334;21.918;2023-08-06T07:40:52;29.1;100.0
22674;DHT22;11504;43.334;21.918;2023-08-06T07:45:32;29.8;100.0
22674;DHT22;11504;43.334;21.918;2023-08-06T07:50:10;29.8;100.0
22674;DHT22;11504;43.334;21.918;2023-08-06T07:54:47;30.6;100.0
22674;DHT22;11504;43.334;21.918;2023-08-06T07:59:24;30.6;100.0
22674;DHT22;11504;43.334;21.918;2023-08-06T08:04:00;30.8;100.0
22674;DHT22;11504;43.334;21.918;2023-08-06T08:08:37;30.8;100.0
22674;DHT22;11504;43.334;21.918;2023-08-06T08:13:13;30.8;100.0
22674;DHT22;11504;43.334;21.918;2023-08-06T08:17:50;30.9;100.0
22674;DHT22;11504;43.334;21.918;2023-08-06T08:22:26;30.9;100.0
22674;DHT22;11504;43.334;21.918;2023-08-06T08:27:03;30.6;100.0
22674;DHT22;11504;43.334;21.918;2023-08-06T08:31:40;30.6;100.0
22674;DHT22;11504;43.334;21.918;2023-08-06T08:36:17;30.3;100.0
22674;DHT22;11504;43.334;21.918;2023-08-06T08:40:55;30.3;100.0
22674;DHT22;11504;43.334;21.918;2023-08-06T08:45:42;30.2;100.0
22674;DHT22;11504;43.334;21.918;2023-08-06T08:50:22;30.2;100.0
22674;DHT22;11504;43.334;21.918;2023-08-06T08:55:02;30.0;100.0
22674;DHT22;11504;43.334;21.918;2023-08-06T08:59:39;30.0;100.0
22674;DHT22;11504;43.334;21.918;2023-08-06T09:04:16;30.4;100.0
22674;DHT22;11504;43.334;21.918;2023-08-06T09:09:09;30.4;100.0
22674;DHT22;11504;43.334;21.918;2023-08-06T09:13:58;30.8;100.0
22674;DHT22;11504;43.334;21.918;2023-08-06T09:18:40;30.8;100.0
22674;DHT22;11504;43.334;21.918;2023-08-06T09:23:16;30.8;100.0
22674;DHT22;11504;43.334;21.918;2023-08-06T09:27:53;31.2;100.0
22674;DHT22;11504;43.334;21.918;2023-08-06T09:32:47;31.2;100.0
22674;DHT22;11504;43.334;21.918;2023-08-06T09:37:35;31.6;100.0
22674;DHT22;11504;43.334;21.918;2023-08-06T09:42:15;31.6;100.0
22674;DHT22;11504;43.334;21.918;2023-08-06T09:46:57;31.6;100.0
22674;DHT22;11504;43.334;21.918;2023-08-06T09:51:39;31.6;100.0
22674;DHT22;11504;43.334;21.918;2023-08-06T09:56:19;31.6;100.0
22674;DHT22;11504;43.334;21.918;2023-08-06T10:00:58;31.6;100.0
22674;DHT22;11504;43.334;21.918;2023-08-06T10:05:37;31.4;100.0
22674;DHT22;11504;43.334;21.918;2023-08-06T10:10:13;31.4;100.0
22674;DHT22;11504;43.334;21.918;2023-08-06T10:14:57;31.2;100.0
22674;DHT22;11504;43.334;21.918;2023-08-06T10:19:37;31.2;100.0
22674;DHT22;11504;43.334;21.918;2023-08-06T10:24:14;30.9;100.0
22674;DHT22;11504;43.334;21.918;2023-08-06T10:28:50;30.9;100.0
22674;DHT22;11504;43.334;21.918;2023-08-06T10:33:45;30.6;100.0
22674;DHT22;11504;43.334;21.918;2023-08-06T10:38:26;30.6;100.0
22674;DHT22;11504;43.334;21.918;2023-08-06T10:43:05;30.6;100.0
22674;DHT22;11504;43.334;21.918;2023-08-06T10:47:46;30.1;100.0
22674;DHT22;11504;43.334;21.918;2023-08-06T10:52:23;30.1;100.0
22674;DHT22;11504;43.334;21.918;2023-08-06T10:57:00;29.6;100.0
22674;DHT22;11504;43.334;21.918;2023-08-06T11:01:38;29.6;100.0
22674;DHT22;11504;43.334;21.918;2023-08-06T11:06:22;29.2;100.0
22674;DHT22;11504;43.334;21.918;2023-08-06T11:11:14;29.2;100.0
22674;DHT22;11504;43.334;21.918;2023-08-06T11:15:53;28.8;100.0
22674;DHT22;11504;43.334;21.918;2023-08-06T11:20:29;28.8;100.0
22674;DHT22;11504;43.334;21.918;2023-08-06T11:25:08;29.0;100.0
22674;DHT22;11504;43.334;21.918;2023-08-06T11:29:45;29.0;100.0
22674;DHT22;11504;43.334;21.918;2023-08-06T11:34:22;29.2;100.0
22674;DHT22;11504;43.334;21.918;2023-08-06T11:39:02;29.2;100.0
22674;DHT22;11504;43.334;21.918;2023-08-06T11:43:40;29.2;100.0
22674;DHT22;11504;43.334;21.918;2023-08-06T11:48:17;29.4;100.0
22674;DHT22;11504;43.334;21.918;2023-08-06T11:53:00;29.4;100.0
22674;DHT22;11504;43.334;21.918;2023-08-06T11:57:44;29.5;100.0
22674;DHT22;11504;43.334;21.918;2023-08-06T12:02:22;29.5;100.0
22674;DHT22;11504;43.334;21.918;2023-08-06T12:07:06;29.2;100.0
22674;DHT22;11504;43.334;21.918;2023-08-06T12:11:43;29.2;100.0
22674;DHT22;11504;43.334;21.918;2023-08-06T12:16:20;28.9;100.0
22674;DHT22;11504;43.334;21.918;2023-08-06T12:20:57;28.9;100.0
22674;DHT22;11504;43.334;21.918;2023-08-06T12:25:33;28.3;100.0
22674;DHT22;11504;43.334;21.918;2023-08-06T12:30:13;28.3;100.0
22674;DHT22;11504;43.334;21.918;2023-08-06T12:34:50;27.7;100.0
22674;DHT22;11504;43.334;21.918;2023-08-06T12:39:26;27.7;100.0
22674;DHT22;11504;43.334;21.918;2023-08-06T12:44:03;27.6;100.0
22674;DHT22;11504;43.334;21.918;2023-08-06T12:48:39;27.6;100.0
22674;DHT22;11504;43.334;21.918;2023-08-06T12:53:15;27.6;100.0
22674;DHT22;11504;43.334;21.918;2023-08-06T12:57:52;27.6;100.0
22674;DHT22;11504;43.334;21.918;2023-08-06T13:02:28;27.6;100.0
22674;DHT22;11504;43.334;21.918;2023-08-06T13:07:04;27.8;100.0
22674;DHT22;11504;43.334;21.918;2023-08-06T13:11:42;27.8;100.0
22674;DHT22;11504;43.334;21.918;2023-08-06T13:16:18;28.1;100.0
22674;DHT22;11504;43.334;21.918;2023-08-06T13:20:55;28.1;100.0
22674;DHT22;11504;43.334;21.918;2023-08-06T13:25:32;28.3;100.0
22674;DHT22;11504;43.334;21.918;2023-08-06T13:30:11;28.3;100.0
22674;DHT22;11504;43.334;21.918;2023-08-06T13:34:47;28.5;100.0
22674;DHT22;11504;43.334;21.918;2023-08-06T13:39:24;28.5;100.0
22674;DHT22;11504;43.334;21.918;2023-08-06T13:44:00;28.1;100.0
22674;DHT22;11504;43.334;21.918;2023-08-06T13:48:37;28.1;100.0
22674;DHT22;11504;43.334;21.918;2023-08-06T13:53:13;28.1;100.0
22674;DHT22;11504;43.334;21.918;2023-08-06T13:57:49;27.7;100.0
22674;DHT22;11504;43.334;21.918;2023-08-06T14:02:26;27.7;100.0
22674;DHT22;11504;43.334;21.918;2023-08-06T14:07:03;27.5;100.0
22674;DHT22;11504;43.334;21.918;2023-08-06T14:11:40;27.5;100.0
22674;DHT22;11504;43.334;21.918;2023-08-06T14:16:17;27.3;100.0
22674;DHT22;11504;43.334;21.918;2023-08-06T14:20:53;27.3;100.0
22674;DHT22;11504;43.334;21.918;2023-08-06T14:25:30;27.3;100.0
22674;DHT22;11504;43.334;21.918;2023-08-06T14:30:10;27.3;100.0
22674;DHT22;11504;43.334;21.918;2023-08-06T14:34:48;27.3;100.0
22674;DHT22;11504;43.334;21.918;2023-08-06T14:39:24;27.3;100.0
22674;DHT22;11504;43.334;21.918;2023-08-06T14:44:01;27.0;100.0
22674;DHT22;11504;43.334;21.918;2023-08-06T14:48:37;27.0;100.0
22674;DHT22;11504;43.334;21.918;2023-08-06T14:53:14;27.0;100.0
22674;DHT22;11504;43.334;21.918;2023-08-06T14:57:52;26.6;100.0
22674;DHT22;11504;43.334;21.918;2023-08-06T15:02:30;26.6;100.0
22674;DHT22;11504;43.334;21.918;2023-08-06T15:07:06;26.3;100.0
22674;DHT22;11504;43.334;21.918;2023-08-06T15:11:43;26.3;100.0
22674;DHT22;11504;43.334;21.918;2023-08-06T15:16:20;26.0;100.0
22674;DHT22;11504;43.334;21.918;2023-08-06T15:20:56;26.0;100.0
22674;DHT22;11504;43.334;21.918;2023-08-06T15:25:32;24.7;100.0
22674;DHT22;11504;43.334;21.918;2023-08-06T15:30:11;24.7;100.0
22674;DHT22;11504;43.334;21.918;2023-08-06T15:34:47;23.4;100.0
22674;DHT22;11504;43.334;21.918;2023-08-06T15:39:23;23.4;100.0
22674;DHT22;11504;43.334;21.918;2023-08-06T15:43:59;23.4;100.0
22674;DHT22;11504;43.334;21.918;2023-08-06T15:48:36;23.2;100.0
22674;DHT22;11504;43.334;21.918;2023-08-06T15:53:12;23.2;100.0
22674;DHT22;11504;43.334;21.918;2023-08-06T15:57:48;23.0;100.0
22674;DHT22;11504;43.334;21.918;2023-08-06T16:02:25;23.0;100.0
22674;DHT22;11504;43.334;21.918;2023-08-06T16:07:01;22.8;100.0
22674;DHT22;11504;43.334;21.918;2023-08-06T16:11:40;22.8;100.0
22674;DHT22;11504;43.334;21.918;2023-08-06T16:16:17;22.7;100.0
22674;DHT22;11504;43.334;21.918;2023-08-06T16:20:53;22.7;100.0
22674;DHT22;11504;43.334;21.918;2023-08-06T16:25:30;22.8;100.0
22674;DHT22;11504;43.334;21.918;2023-08-06T16:30:09;22.8;100.0
22674;DHT22;11504;43.334;21.918;2023-08-06T16:34:46;23.0;100.0
22674;DHT22;11504;43.334;21.918;2023-08-06T16:39:23;23.0;100.0
22674;DHT22;11504;43.334;21.918;2023-08-06T16:43:59;23.0;100.0
22674;DHT22;11504;43.334;21.918;2023-08-06T16:48:36;23.0;100.0
22674;DHT22;11504;43.334;21.918;2023-08-06T16:53:12;23.0;100.0
22674;DHT22;11504;43.334;21.918;2023-08-06T16:57:49;22.9;100.0
22674;DHT22;11504;43.334;21.918;2023-08-06T17:02:25;22.9;100.0
22674;DHT22;11504;43.334;21.918;2023-08-06T17:07:02;23.0;100.0
22674;DHT22;11504;43.334;21.918;2023-08-06T17:11:40;23.0;100.0
22674;DHT22;11504;43.334;21.918;2023-08-06T17:16:17;23.0;100.0
22674;DHT22;11504;43.334;21.918;2023-08-06T17:20:54;23.0;100.0
22674;DHT22;11504;43.334;21.918;2023-08-06T17:25:31;23.0;100.0
22674;DHT22;11504;43.334;21.918;2023-08-06T17:30:10;23.0;100.0
22674;DHT22;11504;43.334;21.918;2023-08-06T17:34:47;22.9;100.0
22674;DHT22;11504;43.334;21.918;2023-08-06T17:39:23;22.9;100.0
22674;DHT22;11504;43.334;21.918;2023-08-06T17:44:00;22.9;100.0
22674;DHT22;11504;43.334;21.918;2023-08-06T17:48:37;22.4;100.0
22674;DHT22;11504;43.334;21.918;2023-08-06T17:53:13;22.4;100.0
22674;DHT22;11504;43.334;21.918;2023-08-06T17:57:50;21.8;100.0
22674;DHT22;11504;43.334;21.918;2023-08-06T18:02:26;21.8;100.0
22674;DHT22;11504;43.334;21.918;2023-08-06T18:07:04;21.7;100.0
22674;DHT22;11504;43.334;21.918;2023-08-06T18:11:41;21.7;100.0
22674;DHT22;11504;43.334;21.918;2023-08-06T18:16:17;21.6;100.0
22674;DHT22;11504;43.334;21.918;2023-08-06T18:20:54;21.6;100.0
22674;DHT22;11504;43.334;21.918;2023-08-06T18:25:30;21.4;100.0
22674;DHT22;11504;43.334;21.918;2023-08-06T18:30:09;21.4;100.0
22674;DHT22;11504;43.334;21.918;2023-08-06T18:34:47;21.1;100.0
22674;DHT22;11504;43.334;21.918;2023-08-06T18:39:23;21.1;100.0
22674;DHT22;11504;43.334;21.918;2023-08-06T18:44:00;21.1;100.0
22674;DHT22;11504;43.334;21.918;2023-08-06T18:48:36;21.1;100.0
22674;DHT22;11504;43.334;21.918;2023-08-06T18:53:13;21.1;100.0
22674;DHT22;11504;43.334;21.918;2023-08-06T18:57:49;21.1;100.0
22674;DHT22;11504;43.334;21.918;2023-08-06T19:02:27;21.1;100.0
22674;DHT22;11504;43.334;21.918;2023-08-06T19:07:04;20.9;100.0
22674;DHT22;11504;43.334;21.918;2023-08-06T19:11:41;20.9;100.0
22674;DHT22;11504;43.334;21.918;2023-08-06T19:16:18;20.7;100.0
22674;DHT22;11504;43.334;21.918;2023-08-06T19:20:56;20.7;100.0
22674;DHT22;11504;43.334;21.918;2023-08-06T19:25:41;20.8;100.0
22674;DHT22;11504;43.334;21.918;2023-08-06T19:30:18;20.8;100.0
22674;DHT22;11504;43.334;21.918;2023-08-06T19:34:56;20.8;100.0
22674;DHT22;11504;43.334;21.918;2023-08-06T19:39:32;20.8;100.0
22674;DHT22;11504;43.334;21.918;2023-08-06T19:44:08;20.8;100.0
22674;DHT22;11504;43.334;21.918;2023-08-06T19:48:45;21.0;100.0
22674;DHT22;11504;43.334;21.918;2023-08-06T19:53:22;21.0;100.0
22674;DHT22;11504;43.334;21.918;2023-08-06T19:57:59;21.3;100.0
22674;DHT22;11504;43.334;21.918;2023-08-06T20:02:36;21.3;100.0
22674;DHT22;11504;43.334;21.918;2023-08-06T20:07:12;21.4;100.0
22674;DHT22;11504;43.334;21.918;2023-08-06T20:11:49;21.4;100.0
22674;DHT22;11504;43.334;21.918;2023-08-06T20:16:26;21.4;100.0
22674;DHT22;11504;43.334;21.918;2023-08-06T20:21:03;21.4;100.0
22674;DHT22;11504;43.334;21.918;2023-08-06T20:25:41;21.4;100.0
22674;DHT22;11504;43.334;21.918;2023-08-06T20:30:18;21.4;100.0
22674;DHT22;11504;43.334;21.918;2023-08-06T20:34:55;21.3;100.0
22674;DHT22;11504;43.334;21.918;2023-08-06T20:39:31;21.3;100.0
22674;DHT22;11504;43.334;21.918;2023-08-06T20:44:07;21.3;100.0
22674;DHT22;11504;43.334;21.918;2023-08-06T20:48:43;21.2;100.0
22674;DHT22;11504;43.334;21.918;2023-08-06T20:53:20;21.2;100.0
22674;DHT22;11504;43.334;21.918;2023-08-06T20:57:56;21.1;100.0
22674;DHT22;11504;43.334;21.918;2023-08-06T21:02:32;21.1;100.0
22674;DHT22;11504;43.334;21.918;2023-08-06T21:07:08;21.2;100.0
22674;DHT22;11504;43.334;21.918;2023-08-06T21:11:44;21.2;100.0
22674;DHT22;11504;43.334;21.918;2023-08-06T21:16:21;21.2;100.0
22674;DHT22;11504;43.334;21.918;2023-08-06T21:21:00;21.2;100.0
22674;DHT22;11504;43.334;21.918;2023-08-06T21:25:37;21.2;100.0
22674;DHT22;11504;43.334;21.918;2023-08-06T21:30:14;21.2;100.0
22674;DHT22;11504;43.334;21.918;2023-08-06T21:34:51;21.3;100.0
22674;DHT22;11504;43.334;21.918;2023-08-06T21:39:29;21.3;100.0
22674;DHT22;11504;43.334;21.918;2023-08-06T21:44:05;21.3;100.0
22674;DHT22;11504;43.334;21.918;2023-08-06T21:48:48;21.2;100.0
22674;DHT22;11504;43.334;21.918;2023-08-06T21:53:25;21.2;100.0
22674;DHT22;11504;43.334;21.918;2023-08-06T21:58:02;21.1;100.0
22674;DHT22;11504;43.334;21.918;2023-08-06T22:02:38;21.1;100.0
22674;DHT22;11504;43.334;21.918;2023-08-06T22:07:15;20.9;100.0
22674;DHT22;11504;43.334;21.918;2023-08-06T22:11:51;20.9;100.0
22674;DHT22;11504;43.334;21.918;2023-08-06T22:16:28;20.7;100.0
22674;DHT22;11504;43.334;21.918;2023-08-06T22:21:04;20.7;100.0
22674;DHT22;11504;43.334;21.918;2023-08-06T22:25:41;20.6;100.0
22674;DHT22;11504;43.334;21.918;2023-08-06T22:30:18;20.6;100.0
22674;DHT22;11504;43.334;21.918;2023-08-06T22:34:54;20.5;100.0
22674;DHT22;11504;43.334;21.918;2023-08-06T22:39:31;20.5;100.0
22674;DHT22;11504;43.334;21.918;2023-08-06T22:44:07;20.5;100.0
22674;DHT22;11504;43.334;21.918;2023-08-06T22:48:43;20.4;100.0
22674;DHT22;11504;43.334;21.918;2023-08-06T22:53:20;20.4;100.0
22674;DHT22;11504;43.334;21.918;2023-08-06T22:57:56;20.4;100.0
22674;DHT22;11504;43.334;21.918;2023-08-06T23:02:33;20.4;100.0
22674;DHT22;11504;43.334;21.918;2023-08-06T23:07:09;20.4;100.0
22674;DHT22;11504;43.334;21.918;2023-08-06T23:11:46;20.4;100.0
22674;DHT22;11504;43.334;21.918;2023-08-06T23:16:22;20.3;100.0
22674;DHT22;11504;43.334;21.918;2023-08-06T23:20:58;20.3;100.0
22674;DHT22;11504;43.334;21.918;2023-08-06T23:25:35;20.2;100.0
22674;DHT22;11504;43.334;21.918;2023-08-06T23:30:13;20.2;100.0
22674;DHT22;11504;43.334;21.918;2023-08-06T23:34:50;20.0;100.0
22674;DHT22;11504;43.334;21.918;2023-08-06T23:39:26;20.0;100.0
22674;DHT22;11504;43.334;21.918;2023-08-06T23:44:03;20.0;100.0
22674;DHT22;11504;43.334;21.918;2023-08-06T23:48:39;19.8;100.0
22674;DHT22;11504;43.334;21.918;2023-08-06T23:53:16;19.8;100.0
22674;DHT22;11504;43.334;21.918;2023-08-06T23:57:53;19.7;100.0
